Time;durP1;ratioP1;P1;durP2;ratioP2;P2;SDS_P1;SDS_P2;PMS_P1;PMS_P2;Temp;Humidity;BMP_temperature;BMP_pressure;BME280_temperature;BME280_humidity;BME280_pressure;Samples;Min_cycle;Max_cycle;Signal;HPM_P1;HPM_P2
2023/01/19 00:00:36;;;;;;;14.93;8.93;;;2.40;1.00;;;;;;5030953;28;20209;-86
2023/01/19 00:03:05;;;;;;;14.27;9.90;;;2.40;1.00;;;;;;5024779;28;20186;-86
2023/01/19 00:05:53;;;;;;;11.40;8.73;;;2.40;1.00;;;;;;5029770;28;20210;-86
2023/01/19 00:08:18;;;;;;;14.38;9.63;;;2.40;1.00;;;;;;5023532;28;20202;-87
2023/01/19 00:10:49;;;;;;;14.03;9.60;;;2.40;1.00;;;;;;5028393;28;20582;-87
2023/01/19 00:13:15;;;;;;;16.58;9.50;;;2.40;1.00;;;;;;5027180;28;20186;-86
2023/01/19 00:15:42;;;;;;;12.18;9.48;;;2.30;1.00;;;;;;5029554;28;21843;-86
2023/01/19 00:18:28;;;;;;;15.20;10.30;;;2.30;1.00;;;;;;5031128;28;20197;-87
2023/01/19 00:20:53;;;;;;;18.35;10.75;;;2.30;1.00;;;;;;5014501;28;20643;-86
2023/01/19 00:23:20;;;;;;;15.30;9.00;;;2.30;1.00;;;;;;5028422;28;20257;-87
2023/01/19 00:26:02;;;;;;;13.18;9.38;;;2.20;1.00;;;;;;5031188;28;20236;-87
2023/01/19 00:28:40;;;;;;;15.32;9.80;;;2.30;1.00;;;;;;5035598;28;20182;-85
2023/01/19 00:31:05;;;;;;;16.48;9.80;;;2.20;1.00;;;;;;5098222;23;20222;-86
2023/01/19 00:36:25;;;;;;;13.60;10.00;;;2.20;1.00;;;;;;5012163;28;20190;-85
2023/01/19 00:38:51;;;;;;;14.90;9.77;;;2.20;1.00;;;;;;5013518;28;20193;-85
2023/01/19 00:44:14;;;;;;;13.43;10.55;;;2.20;1.00;;;;;;5002587;28;20189;-86
2023/01/19 00:46:39;;;;;;;12.15;9.23;;;2.20;11.40;;;;;;5032059;28;20986;-86
2023/01/19 00:49:08;;;;;;;13.77;10.30;;;2.20;1.00;;;;;;5012414;28;20211;-86
2023/01/19 00:51:33;;;;;;;15.65;10.23;;;2.20;1.00;;;;;;5019280;28;20202;-86
2023/01/19 00:54:03;;;;;;;15.73;10.23;;;2.20;1.00;;;;;;5015128;28;20190;-88
2023/01/19 00:56:36;;;;;;;14.55;10.40;;;2.20;1.00;;;;;;5006428;28;20182;-86
2023/01/19 00:59:02;;;;;;;20.67;11.98;;;2.20;19.20;;;;;;5010216;28;20181;-87
2023/01/19 01:01:27;;;;;;;14.68;10.13;;;2.20;59.20;;;;;;5006908;28;20198;-86
2023/01/19 01:03:54;;;;;;;15.07;10.27;;;2.20;50.60;;;;;;5035074;28;20678;-86
2023/01/19 01:06:20;;;;;;;16.63;10.48;;;2.20;92.00;;;;;;5018441;28;20207;-86
2023/01/19 01:08:46;;;;;;;16.23;10.50;;;2.30;76.80;;;;;;5014268;28;20190;-87
2023/01/19 01:11:12;;;;;;;15.07;9.80;;;2.30;57.80;;;;;;5014876;28;20206;-86
2023/01/19 01:13:38;;;;;;;13.53;10.27;;;2.30;33.90;;;;;;5015879;28;20182;-86
2023/01/19 01:16:08;;;;;;;13.00;9.27;;;2.20;37.50;;;;;;5021539;28;20198;-85
2023/01/19 01:18:34;;;;;;;16.48;9.57;;;2.20;11.00;;;;;;5017287;28;20182;-86
2023/01/19 01:21:04;;;;;;;23.60;10.97;;;2.20;8.10;;;;;;5020583;28;20206;-87
2023/01/19 01:23:36;;;;;;;15.65;9.48;;;2.20;39.60;;;;;;5018003;28;20175;-86
2023/01/19 01:26:01;;;;;;;16.65;9.88;;;2.20;50.10;;;;;;4997399;28;20351;-87
2023/01/19 01:28:27;;;;;;;12.83;9.80;;;2.20;51.60;;;;;;5006141;28;20186;-87
2023/01/19 01:30:56;;;;;;;16.53;10.13;;;2.20;81.20;;;;;;5025864;28;20705;-86
2023/01/19 01:33:22;;;;;;;20.88;10.73;;;2.20;89.00;;;;;;5019422;28;20183;-85
2023/01/19 01:35:48;;;;;;;16.13;9.23;;;2.20;75.30;;;;;;5015628;28;20651;-86
2023/01/19 01:38:15;;;;;;;13.43;9.40;;;2.20;91.30;;;;;;5014855;28;20178;-87
2023/01/19 01:40:41;;;;;;;15.00;9.98;;;2.20;99.90;;;;;;5013368;28;20495;-86
2023/01/19 01:43:14;;;;;;;15.00;9.90;;;2.20;72.60;;;;;;5018520;28;20187;-86
2023/01/19 01:45:40;;;;;;;16.65;9.15;;;2.20;53.60;;;;;;5022266;28;20186;-87
2023/01/19 01:48:29;;;;;;;13.93;10.15;;;2.20;47.10;;;;;;5020882;28;20179;-87
2023/01/19 01:53:48;;;;;;;13.43;9.55;;;2.20;99.90;;;;;;5005499;28;20199;-87
2023/01/19 01:56:20;;;;;;;11.90;8.30;;;2.10;99.90;;;;;;5009650;28;20667;-86
2023/01/19 01:58:47;;;;;;;12.75;8.52;;;2.20;64.80;;;;;;5017010;28;20222;-86
2023/01/19 02:03:57;;;;;;;14.75;9.35;;;2.10;69.40;;;;;;5007016;28;20225;-87
2023/01/19 02:06:23;;;;;;;14.43;8.87;;;2.10;89.50;;;;;;4995693;28;20248;-86
2023/01/19 02:14:38;;;;;;;15.30;9.82;;;2.10;96.90;;;;;;5007130;28;20218;-87
2023/01/19 02:17:04;;;;;;;11.35;8.25;;;2.10;90.70;;;;;;5024702;28;20201;-87
2023/01/19 02:19:37;;;;;;;13.30;8.68;;;2.10;75.50;;;;;;5002990;28;20196;-86
2023/01/19 02:22:25;;;;;;;12.85;8.82;;;2.10;98.50;;;;;;5018334;28;20295;-86
2023/01/19 02:24:52;;;;;;;13.25;8.75;;;2.10;99.90;;;;;;5025937;28;20217;-86
2023/01/19 02:27:20;;;;;;;10.85;6.97;;;2.10;99.90;;;;;;5007107;28;20202;-87
2023/01/19 02:29:46;;;;;;;11.07;7.70;;;2.10;99.90;;;;;;5007288;28;20191;-86
2023/01/19 02:32:11;;;;;;;12.73;8.10;;;2.20;99.90;;;;;;5009190;28;20566;-86
2023/01/19 02:34:37;;;;;;;11.47;7.80;;;2.20;99.90;;;;;;5023967;28;20182;-87
2023/01/19 02:37:10;;;;;;;12.00;8.80;;;2.20;99.90;;;;;;5008083;28;20209;-87
2023/01/19 02:39:40;;;;;;;12.55;7.70;;;2.20;99.90;;;;;;5013509;28;20182;-87
2023/01/19 02:42:11;;;;;;;16.27;8.00;;;2.30;99.90;;;;;;5003994;28;20853;-86
2023/01/19 02:44:38;;;;;;;12.23;7.35;;;2.30;93.70;;;;;;5012429;28;20183;-86
2023/01/19 02:47:04;;;;;;;12.93;7.55;;;2.30;42.70;;;;;;5021091;28;20207;-86
2023/01/19 02:49:30;;;;;;;12.13;8.00;;;2.40;17.30;;;;;;5028944;28;20189;-86
2023/01/19 02:51:57;;;;;;;13.10;7.40;;;2.40;1.00;;;;;;5016607;28;20203;-85
2023/01/19 02:54:34;;;;;;;13.27;8.27;;;2.40;1.00;;;;;;5010103;28;20237;-88
2023/01/19 02:57:38;;;;;;;17.00;8.60;;;2.40;1.00;;;;;;5013495;28;20185;-86
2023/01/19 03:00:38;;;;;;;16.95;7.97;;;2.40;1.00;;;;;;5034297;28;20210;-86
2023/01/19 03:03:26;;;;;;;11.35;7.20;;;2.30;1.00;;;;;;5021996;28;20201;-86
2023/01/19 03:06:07;;;;;;;10.15;7.47;;;2.30;1.00;;;;;;5020501;28;20187;-87
2023/01/19 03:08:46;;;;;;;10.65;6.93;;;2.30;1.00;;;;;;5019447;28;20305;-86
2023/01/19 03:11:15;;;;;;;12.18;7.63;;;2.30;1.00;;;;;;5005042;28;20228;-87
2023/01/19 03:13:43;;;;;;;14.60;7.90;;;2.30;1.00;;;;;;5021032;28;20175;-86
2023/01/19 03:16:21;;;;;;;11.70;8.23;;;2.30;1.00;;;;;;5012312;28;20242;-87
2023/01/19 03:18:52;;;;;;;11.95;8.23;;;2.40;1.00;;;;;;5015392;28;20269;-86
2023/01/19 03:21:21;;;;;;;11.93;7.90;;;2.40;1.00;;;;;;5004121;28;20214;-87
2023/01/19 03:23:49;;;;;;;12.85;7.00;;;2.40;1.00;;;;;;5010301;28;20582;-88
2023/01/19 03:26:20;;;;;;;16.60;8.70;;;2.50;1.00;;;;;;5015226;28;20201;-86
2023/01/19 03:28:47;;;;;;;12.57;7.32;;;2.50;1.00;;;;;;5018008;28;20183;-87
2023/01/19 03:31:16;;;;;;;14.75;8.55;;;2.50;1.00;;;;;;5037410;28;20214;-88
2023/01/19 03:33:47;;;;;;;14.88;8.25;;;2.60;1.00;;;;;;5024616;28;20178;-87
2023/01/19 03:36:23;;;;;;;15.95;8.05;;;2.60;1.00;;;;;;5024394;28;20187;-86
2023/01/19 03:38:50;;;;;;;15.68;7.43;;;2.70;1.00;;;;;;5010845;28;20666;-87
2023/01/19 03:41:18;;;;;;;11.77;7.28;;;2.70;1.00;;;;;;5003740;28;20239;-86
2023/01/19 03:43:46;;;;;;;9.80;6.90;;;2.70;99.90;;;;;;5015567;28;20285;-88
2023/01/19 03:46:16;;;;;;;12.60;8.15;;;2.80;99.90;;;;;;5016207;28;20207;-87
2023/01/19 03:48:42;;;;;;;13.35;7.43;;;2.80;99.90;;;;;;5022515;28;20209;-87
2023/01/19 03:51:09;;;;;;;10.43;7.80;;;2.90;99.90;;;;;;5006296;28;20221;-86
2023/01/19 03:53:35;;;;;;;11.65;7.82;;;2.90;99.90;;;;;;5023748;28;20178;-87
2023/01/19 03:56:01;;;;;;;10.43;7.67;;;3.00;90.70;;;;;;5007510;28;20182;-88
2023/01/19 03:58:27;;;;;;;13.65;7.43;;;3.00;1.00;;;;;;5015613;28;20228;-87
2023/01/19 04:00:52;;;;;;;16.23;7.57;;;3.00;1.00;;;;;;5013157;28;20865;-87
2023/01/19 04:03:18;;;;;;;11.30;7.27;;;3.00;1.00;;;;;;5035400;28;20441;-87
2023/01/19 04:05:44;;;;;;;11.93;7.83;;;3.10;1.00;;;;;;5012846;28;20178;-86
2023/01/19 04:08:10;;;;;;;13.07;7.80;;;3.10;99.90;;;;;;5023289;28;20191;-87
2023/01/19 04:10:37;;;;;;;13.37;8.50;;;3.10;99.90;;;;;;5013877;28;20198;-87
2023/01/19 04:13:03;;;;;;;13.63;7.10;;;3.10;99.90;;;;;;5005448;28;20433;-86
2023/01/19 04:15:30;;;;;;;14.48;8.63;;;3.10;99.90;;;;;;5019284;28;20209;-87
2023/01/19 04:17:59;;;;;;;13.45;8.90;;;3.10;99.90;;;;;;5005213;28;20182;-86
2023/01/19 04:20:27;;;;;;;12.60;7.65;;;3.10;99.90;;;;;;5019815;28;20213;-87
2023/01/19 04:22:59;;;;;;;10.68;6.93;;;3.10;99.90;;;;;;5008972;28;20215;-87
2023/01/19 04:25:26;;;;;;;13.82;8.27;;;3.20;99.90;;;;;;5007957;28;20191;-87
2023/01/19 04:27:52;;;;;;;13.75;9.32;;;3.20;99.90;;;;;;5004439;28;20215;-87
2023/01/19 04:30:18;;;;;;;12.40;8.75;;;3.20;99.90;;;;;;5020214;28;20268;-87
2023/01/19 04:32:43;;;;;;;13.23;8.13;;;3.20;99.90;;;;;;5027224;28;20178;-87
2023/01/19 04:35:09;;;;;;;17.30;9.57;;;3.20;99.90;;;;;;5015184;28;20517;-87
2023/01/19 04:37:34;;;;;;;16.47;9.43;;;3.20;99.90;;;;;;5015616;28;20201;-87
2023/01/19 04:40:00;;;;;;;17.43;10.57;;;3.20;1.00;;;;;;5011077;28;20301;-86
2023/01/19 04:42:26;;;;;;;15.30;9.97;;;3.20;6.90;;;;;;5015944;28;20208;-86
2023/01/19 04:44:52;;;;;;;18.17;11.35;;;3.20;99.90;;;;;;5018428;28;20194;-86
2023/01/19 04:47:18;;;;;;;19.48;10.60;;;3.10;1.00;;;;;;5014964;28;20211;-89
2023/01/19 04:49:44;;;;;;;21.73;12.40;;;3.10;1.00;;;;;;5019262;28;20187;-87
2023/01/19 04:52:09;;;;;;;19.13;11.60;;;3.00;1.00;;;;;;5004706;28;20525;-87
2023/01/19 04:54:35;;;;;;;27.60;13.00;;;3.00;76.40;;;;;;5004846;28;20178;-87
2023/01/19 04:57:00;;;;;;;26.10;13.97;;;2.90;99.90;;;;;;5020400;28;20210;-87
2023/01/19 04:59:26;;;;;;;33.17;14.40;;;2.80;99.90;;;;;;5019301;28;20187;-86
2023/01/19 05:01:52;;;;;;;26.70;13.20;;;2.80;99.90;;;;;;5008347;28;20209;-87
2023/01/19 05:04:17;;;;;;;41.43;15.63;;;2.80;99.90;;;;;;5015486;28;20190;-87
2023/01/19 05:06:43;;;;;;;37.20;16.60;;;2.80;99.90;;;;;;5014257;28;20210;-87
2023/01/19 05:09:12;;;;;;;33.90;15.97;;;2.70;99.90;;;;;;5004953;28;20179;-87
2023/01/19 05:11:37;;;;;;;30.95;16.90;;;2.70;99.90;;;;;;5014879;28;20190;-86
2023/01/19 05:14:03;;;;;;;46.30;19.70;;;2.70;99.90;;;;;;5016582;28;20622;-86
2023/01/19 05:16:28;;;;;;;32.63;15.97;;;2.70;1.00;;;;;;5005943;28;20191;-86
2023/01/19 05:18:54;;;;;;;40.03;17.03;;;2.60;1.00;;;;;;5018466;28;20187;-86
2023/01/19 05:21:19;;;;;;;41.03;19.60;;;2.60;1.00;;;;;;5008546;28;20215;-86
2023/01/19 05:23:45;;;;;;;45.67;19.20;;;2.50;1.00;;;;;;5018285;28;20237;-87
2023/01/19 05:26:10;;;;;;;35.57;17.00;;;2.40;1.00;;;;;;5014096;28;20206;-87
2023/01/19 05:28:36;;;;;;;45.07;19.30;;;2.40;1.00;;;;;;5006014;28;20557;-86
2023/01/19 05:31:02;;;;;;;50.90;20.60;;;2.30;1.00;;;;;;5020244;28;20233;-86
2023/01/19 05:33:28;;;;;;;47.60;21.27;;;2.30;1.00;;;;;;5025319;28;20492;-87
2023/01/19 05:35:54;;;;;;;52.37;21.57;;;2.20;1.00;;;;;;5014172;28;20200;-87
2023/01/19 05:38:20;;;;;;;42.83;21.20;;;2.20;1.00;;;;;;5014459;28;20201;-86
2023/01/19 05:40:46;;;;;;;42.60;20.00;;;2.10;1.00;;;;;;5019221;28;20484;-87
2023/01/19 05:43:14;;;;;;;50.97;21.90;;;2.10;1.00;;;;;;5014799;28;20229;-87
2023/01/19 05:45:40;;;;;;;52.15;23.88;;;2.10;1.00;;;;;;5019885;28;20263;-86
2023/01/19 05:48:06;;;;;;;48.83;20.90;;;2.00;1.00;;;;;;5013753;28;20695;-88
2023/01/19 05:50:33;;;;;;;48.65;20.95;;;2.00;1.00;;;;;;5018824;28;20198;-88
2023/01/19 05:52:58;;;;;;;48.40;20.80;;;2.00;1.00;;;;;;5021816;28;20178;-87
2023/01/19 05:55:25;;;;;;;60.70;22.33;;;2.00;1.00;;;;;;5021965;28;20179;-87
2023/01/19 05:57:50;;;;;;;51.50;22.50;;;2.00;1.00;;;;;;5007903;28;20441;-87
2023/01/19 06:00:17;;;;;;;64.00;25.27;;;2.00;1.00;;;;;;5007380;28;20730;-87
2023/01/19 06:02:43;;;;;;;63.22;23.90;;;2.00;1.00;;;;;;5020420;28;20236;-87
2023/01/19 06:05:09;;;;;;;69.07;24.17;;;2.00;1.00;;;;;;5019640;28;20585;-88
2023/01/19 06:07:34;;;;;;;73.93;23.85;;;2.00;1.00;;;;;;5013572;28;20207;-87
2023/01/19 06:10:00;;;;;;;69.73;24.97;;;2.00;1.00;;;;;;5016956;28;20203;-87
2023/01/19 06:12:26;;;;;;;61.40;24.63;;;2.00;1.00;;;;;;5011790;28;20248;-87
2023/01/19 06:14:51;;;;;;;68.43;27.70;;;2.00;1.00;;;;;;5005324;28;20183;-87
2023/01/19 06:17:17;;;;;;;77.93;26.70;;;2.00;1.00;;;;;;5012369;28;20193;-88
2023/01/19 06:19:45;;;;;;;78.85;27.60;;;1.90;1.00;;;;;;5004723;28;20671;-86
2023/01/19 06:22:14;;;;;;;71.30;26.15;;;1.90;1.00;;;;;;5008167;28;20193;-87
2023/01/19 06:24:40;;;;;;;78.88;28.08;;;1.90;1.00;;;;;;5004847;28;20697;-87
2023/01/19 06:27:05;;;;;;;69.93;26.73;;;1.90;1.00;;;;;;5005524;28;20333;-87
2023/01/19 06:29:31;;;;;;;69.33;25.57;;;2.00;1.00;;;;;;5007398;28;20176;-87
2023/01/19 06:32:00;;;;;;;80.50;27.08;;;1.90;1.00;;;;;;4992784;28;20207;-88
2023/01/19 06:34:28;;;;;;;72.15;28.55;;;1.90;1.00;;;;;;4993396;28;20172;-87
2023/01/19 06:36:58;;;;;;;79.70;28.23;;;1.90;1.00;;;;;;4994862;28;20275;-87
2023/01/19 06:39:26;;;;;;;95.88;29.88;;;1.90;1.00;;;;;;5013296;28;20175;-87
2023/01/19 06:42:09;;;;;;;93.05;30.35;;;2.00;1.00;;;;;;5009248;28;20225;-86
2023/01/19 06:44:35;;;;;;;85.15;27.23;;;1.90;1.00;;;;;;5018590;28;20684;-87
2023/01/19 06:47:03;;;;;;;84.30;27.77;;;1.90;1.00;;;;;;5028529;28;20291;-86
2023/01/19 06:49:28;;;;;;;97.20;29.08;;;1.90;1.00;;;;;;5013836;28;20182;-87
2023/01/19 06:51:54;;;;;;;99.27;33.00;;;2.00;1.00;;;;;;5013290;28;20199;-86
2023/01/19 06:54:20;;;;;;;101.53;30.73;;;1.90;1.00;;;;;;5013153;28;20179;-86
2023/01/19 06:56:46;;;;;;;91.18;30.25;;;1.90;1.00;;;;;;5018899;28;20186;-86
2023/01/19 06:59:11;;;;;;;97.13;33.87;;;1.90;1.00;;;;;;5015558;28;20605;-87
2023/01/19 07:01:46;;;;;;;91.37;30.03;;;2.00;1.00;;;;;;5020868;28;20231;-87
2023/01/19 07:04:13;;;;;;;83.50;30.30;;;1.90;1.00;;;;;;5036602;28;20190;-87
2023/01/19 07:06:38;;;;;;;90.90;33.90;;;1.90;1.00;;;;;;5025801;28;20200;-87
2023/01/19 07:09:06;;;;;;;104.03;33.50;;;1.90;1.00;;;;;;5018452;28;20234;-87
2023/01/19 07:11:32;;;;;;;95.05;33.38;;;1.90;1.00;;;;;;5034058;28;20238;-86
2023/01/19 07:13:58;;;;;;;101.70;31.23;;;1.90;1.00;;;;;;5018188;28;20570;-85
2023/01/19 07:16:23;;;;;;;100.73;34.17;;;1.90;1.00;;;;;;5030328;28;20175;-86
2023/01/19 07:18:50;;;;;;;108.43;31.30;;;2.00;1.00;;;;;;5006990;28;20291;-86
2023/01/19 07:21:15;;;;;;;97.00;30.67;;;2.00;1.00;;;;;;5030605;28;20210;-87
2023/01/19 07:23:42;;;;;;;101.80;34.37;;;2.00;1.00;;;;;;5023519;28;20179;-87
2023/01/19 07:26:09;;;;;;;92.60;31.95;;;2.00;1.00;;;;;;5014898;28;20202;-85
2023/01/19 07:28:35;;;;;;;85.88;28.40;;;2.00;1.00;;;;;;5024550;28;20171;-85
2023/01/19 07:31:01;;;;;;;95.80;32.78;;;2.10;1.00;;;;;;5036506;28;20272;-85
2023/01/19 07:33:28;;;;;;;98.77;32.23;;;2.20;1.00;;;;;;5030925;28;20191;-85
2023/01/19 07:35:53;;;;;;;96.15;32.35;;;2.20;1.00;;;;;;5017168;28;20426;-85
2023/01/19 07:38:19;;;;;;;94.87;34.77;;;2.20;1.00;;;;;;5024872;28;20266;-86
2023/01/19 07:40:48;;;;;;;96.07;30.17;;;2.20;1.00;;;;;;5015252;28;20458;-85
2023/01/19 07:43:16;;;;;;;82.88;32.00;;;2.30;1.00;;;;;;5017237;28;20206;-86
2023/01/19 07:45:43;;;;;;;85.78;32.70;;;2.30;1.00;;;;;;5032377;28;20170;-85
2023/01/19 07:48:18;;;;;;;94.72;30.40;;;2.30;1.00;;;;;;5030318;28;20206;-85
2023/01/19 07:50:43;;;;;;;97.38;32.08;;;2.30;1.00;;;;;;5015163;28;20339;-85
2023/01/19 07:53:10;;;;;;;84.80;30.37;;;2.30;1.00;;;;;;5020816;28;20216;-85
2023/01/19 07:55:36;;;;;;;84.55;30.60;;;2.40;1.00;;;;;;5028425;28;20182;-86
2023/01/19 07:58:06;;;;;;;85.77;30.03;;;2.40;1.00;;;;;;5029027;28;20535;-87
2023/01/19 08:00:32;;;;;;;71.00;26.80;;;2.40;1.00;;;;;;5019270;28;20622;-86
2023/01/19 08:03:02;;;;;;;88.22;30.83;;;2.40;1.00;;;;;;5025367;28;20269;-86
2023/01/19 08:05:28;;;;;;;78.90;28.75;;;2.50;1.00;;;;;;5019103;28;20194;-85
2023/01/19 08:07:56;;;;;;;66.97;27.45;;;2.50;1.00;;;;;;5015399;28;20194;-85
2023/01/19 08:10:25;;;;;;;76.15;30.88;;;2.60;1.00;;;;;;5021771;28;20197;-84
2023/01/19 08:12:55;;;;;;;76.55;30.58;;;2.60;1.00;;;;;;5022504;28;20185;-85
2023/01/19 08:15:22;;;;;;;77.00;30.83;;;2.70;1.00;;;;;;5020375;28;20218;-85
2023/01/19 08:18:10;;;;;;;77.13;29.38;;;2.70;1.00;;;;;;5042616;28;20191;-85
2023/01/19 08:20:36;;;;;;;71.43;28.50;;;2.70;1.00;;;;;;5005878;28;20202;-85
2023/01/19 08:23:03;;;;;;;92.40;34.87;;;2.80;1.00;;;;;;5019961;28;20191;-85
2023/01/19 08:25:37;;;;;;;93.38;34.58;;;2.80;1.00;;;;;;5021654;28;20540;-85
2023/01/19 08:28:04;;;;;;;91.38;33.63;;;2.80;1.00;;;;;;5035676;28;20204;-85
2023/01/19 08:30:30;;;;;;;89.35;35.42;;;2.90;1.00;;;;;;5022520;28;20207;-85
2023/01/19 08:33:02;;;;;;;103.60;35.33;;;2.90;1.00;;;;;;5019387;28;20269;-85
2023/01/19 08:35:31;;;;;;;89.55;34.47;;;2.90;1.00;;;;;;5029719;28;20432;-85
2023/01/19 08:38:00;;;;;;;86.80;34.47;;;3.00;1.00;;;;;;5019250;28;20187;-86
2023/01/19 08:40:27;;;;;;;91.05;36.83;;;3.00;1.00;;;;;;5012882;28;20217;-86
2023/01/19 08:42:59;;;;;;;103.70;36.25;;;3.00;1.00;;;;;;5007033;28;20237;-86
2023/01/19 08:45:29;;;;;;;107.95;34.25;;;3.00;1.00;;;;;;5017900;28;20546;-85
2023/01/19 08:47:57;;;;;;;90.78;32.42;;;3.00;1.00;;;;;;5009248;28;20235;-86
2023/01/19 08:50:30;;;;;;;94.20;34.13;;;3.10;1.00;;;;;;5020395;28;20202;-86
2023/01/19 08:52:56;;;;;;;92.93;33.75;;;3.10;1.00;;;;;;5028489;28;20674;-86
2023/01/19 08:55:25;;;;;;;92.72;35.13;;;3.20;1.00;;;;;;5028457;28;20182;-85
2023/01/19 08:57:58;;;;;;;102.45;33.22;;;3.20;1.00;;;;;;5029863;28;20190;-86
2023/01/19 09:00:26;;;;;;;88.90;33.28;;;3.30;1.00;;;;;;5020247;28;20203;-86
2023/01/19 09:02:55;;;;;;;75.15;32.15;;;3.40;1.00;;;;;;5017187;28;20234;-86
2023/01/19 09:05:21;;;;;;;82.97;32.58;;;3.50;1.00;;;;;;5043208;28;20244;-86
2023/01/19 09:07:50;;;;;;;87.57;30.70;;;3.50;1.00;;;;;;5013755;28;20215;-85
2023/01/19 09:10:17;;;;;;;88.10;31.95;;;3.50;1.00;;;;;;5020529;28;20230;-86
2023/01/19 09:12:43;;;;;;;93.63;29.77;;;3.50;1.00;;;;;;5022448;28;20214;-86
2023/01/19 09:15:11;;;;;;;89.18;28.95;;;3.60;1.00;;;;;;5021011;28;20558;-88
2023/01/19 09:17:36;;;;;;;81.60;32.97;;;3.60;1.00;;;;;;5829194;22;21167;-86
2023/01/19 09:22:38;;;;;;;74.60;28.45;;;3.80;1.00;;;;;;5502982;23;20620;-87
2023/01/19 09:25:05;;;;;;;71.57;27.05;;;3.90;1.00;;;;;;5041180;28;20174;-86
2023/01/19 09:27:30;;;;;;;78.63;29.15;;;3.90;1.00;;;;;;5030046;28;20217;-87
2023/01/19 09:29:56;;;;;;;66.90;31.33;;;3.90;1.00;;;;;;5037448;28;20589;-87
2023/01/19 09:32:22;;;;;;;68.33;30.13;;;3.90;1.00;;;;;;5033112;28;20198;-86
2023/01/19 09:34:47;;;;;;;56.63;27.90;;;3.80;1.00;;;;;;5044567;28;20196;-86
2023/01/19 09:37:14;;;;;;;68.77;30.00;;;3.80;1.00;;;;;;5045649;28;20607;-86
2023/01/19 09:39:40;;;;;;;62.97;26.63;;;3.70;1.00;;;;;;5037265;28;20178;-86
2023/01/19 09:42:56;;;;;;;61.83;28.67;;;3.70;1.00;;;;;;5030283;28;20582;-86
2023/01/19 09:45:35;;;;;;;70.93;27.40;;;3.60;1.00;;;;;;5014497;28;20198;-88
2023/01/19 09:48:10;;;;;;;53.95;26.02;;;3.60;1.00;;;;;;5030026;28;20208;-87
2023/01/19 09:50:45;;;;;;;55.00;25.02;;;3.60;1.00;;;;;;5029226;28;20579;-87
2023/01/19 09:53:20;;;;;;;43.60;24.00;;;3.60;1.00;;;;;;5028583;28;20214;-87
2023/01/19 09:55:45;;;;;;;47.40;23.40;;;3.60;1.00;;;;;;5040292;28;20189;-87
2023/01/19 09:58:18;;;;;;;55.47;25.67;;;3.70;1.00;;;;;;5045597;28;20244;-88
2023/01/19 10:00:50;;;;;;;43.03;21.05;;;3.70;1.00;;;;;;5029508;28;20433;-88
2023/01/19 10:03:19;;;;;;;45.83;23.38;;;3.70;1.00;;;;;;5044523;28;20201;-89
2023/01/19 10:06:04;;;;;;;44.28;21.88;;;3.90;1.00;;;;;;5032844;28;20197;-89
2023/01/19 10:08:38;;;;;;;45.72;23.30;;;4.10;1.00;;;;;;5032272;28;20208;-86
2023/01/19 10:11:17;;;;;;;41.38;19.20;;;4.40;1.00;;;;;;5018522;28;20181;-86
2023/01/19 10:13:53;;;;;;;36.33;19.45;;;4.60;1.00;;;;;;5025575;28;20206;-87
2023/01/19 10:16:32;;;;;;;34.00;17.63;;;5.10;1.00;;;;;;5028569;28;20266;-87
2023/01/19 10:19:29;;;;;;;30.42;16.08;;;5.40;99.90;;;;;;5035412;28;20178;-86
2023/01/19 10:22:07;;;;;;;34.22;16.42;;;5.50;99.90;;;;;;5022262;28;20690;-88
2023/01/19 10:24:41;;;;;;;29.13;16.58;;;5.30;37.00;;;;;;5040172;28;20238;-86
2023/01/19 10:27:17;;;;;;;29.50;16.73;;;5.10;68.60;;;;;;5041006;28;20198;-89
2023/01/19 10:29:46;;;;;;;40.20;17.65;;;5.00;1.00;;;;;;5027434;28;20211;-88
2023/01/19 10:32:21;;;;;;;35.95;17.70;;;4.90;52.10;;;;;;5022165;28;20611;-89
2023/01/19 10:34:51;;;;;;;28.75;16.40;;;4.90;99.90;;;;;;5025145;28;20213;-89
2023/01/19 10:37:16;;;;;;;26.83;15.07;;;5.00;99.90;;;;;;5042245;28;20281;-86
2023/01/19 10:39:58;;;;;;;32.43;16.70;;;5.20;99.90;;;;;;5029316;28;20751;-87
2023/01/19 10:42:29;;;;;;;35.15;15.10;;;5.50;1.00;;;;;;5031299;28;20210;-87
2023/01/19 10:45:19;;;;;;;28.25;14.63;;;5.90;99.90;;;;;;5021960;28;20699;-86
2023/01/19 10:47:45;;;;;;;28.10;15.80;;;6.00;1.00;;;;;;5029158;28;20325;-88
2023/01/19 10:50:38;;;;;;;33.13;15.65;;;5.90;99.90;;;;;;5030852;28;20547;-90
2023/01/19 10:53:20;;;;;;;24.67;15.52;;;5.70;37.90;;;;;;5025756;28;20217;-88
2023/01/19 11:03:17;;;;;;;28.42;15.68;;;6.10;1.00;;;;;;5005975;28;20207;-89
2023/01/19 11:05:45;;;;;;;24.83;14.70;;;7.00;95.10;;;;;;4982288;28;20195;-89
2023/01/19 11:08:44;;;;;;;31.10;14.30;;;7.40;99.90;;;;;;5014244;28;20464;-89
2023/01/19 11:11:11;;;;;;;34.40;15.87;;;7.40;99.90;;;;;;5031304;28;20437;-90
2023/01/19 11:13:41;;;;;;;29.83;15.20;;;7.30;1.00;;;;;;5028655;28;20503;-88
2023/01/19 11:16:19;;;;;;;27.65;14.13;;;7.10;1.00;;;;;;5030647;28;20444;-89
2023/01/19 11:18:51;;;;;;;27.17;15.90;;;7.00;1.00;;;;;;5025445;28;20222;-88
2023/01/19 11:21:37;;;;;;;32.63;16.83;;;6.90;1.00;;;;;;5029656;28;20185;-88
2023/01/19 11:24:47;;;;;;;30.90;15.35;;;6.70;48.00;;;;;;5024796;28;20186;-88
2023/01/19 11:27:20;;;;;;;33.80;17.02;;;6.50;99.90;;;;;;4992599;28;20552;-88
2023/01/19 11:29:57;;;;;;;31.02;16.33;;;6.20;1.00;;;;;;4979688;28;20225;-87
2023/01/19 11:32:26;;;;;;;31.67;15.90;;;6.10;1.00;;;;;;4996325;28;20212;-88
2023/01/19 11:35:20;;;;;;;27.38;15.98;;;6.00;99.90;;;;;;5032365;28;20192;-88
2023/01/19 11:38:24;;;;;;;33.08;17.00;;;5.80;99.90;;;;;;5022171;28;20273;-87
2023/01/19 11:43:53;;;;;;;30.58;16.58;;;5.70;99.90;;;;;;5276617;23;20245;-88
2023/01/19 11:46:22;;;;;;;31.55;15.90;;;5.70;1.00;;;;;;5000984;28;20183;-88
2023/01/19 11:48:59;;;;;;;28.95;16.55;;;5.70;99.90;;;;;;5037826;28;20182;-87
2023/01/19 11:54:14;;;;;;;32.63;16.92;;;6.20;1.00;;;;;;4720895;26;20631;-87
2023/01/19 11:56:41;;;;;;;30.90;16.02;;;6.40;99.90;;;;;;5010392;28;20190;-87
2023/01/19 11:59:18;;;;;;;29.42;16.10;;;6.30;99.90;;;;;;5012349;28;20575;-87
2023/01/19 12:01:56;;;;;;;24.45;14.43;;;6.20;1.00;;;;;;5023763;28;20710;-87
2023/01/19 12:04:32;;;;;;;30.08;17.15;;;6.10;1.00;;;;;;5027066;28;20177;-87
2023/01/19 12:07:06;;;;;;;36.20;17.55;;;6.20;1.00;;;;;;5030039;28;20209;-89
2023/01/19 12:09:41;;;;;;;31.30;16.20;;;6.40;1.00;;;;;;5027109;28;20194;-88
2023/01/19 12:12:11;;;;;;;41.38;22.35;;;6.70;1.00;;;;;;5023878;28;20292;-87
2023/01/19 12:15:02;;;;;;;28.45;18.08;;;6.70;1.00;;;;;;5027933;28;20193;-86
2023/01/19 12:17:42;;;;;;;33.35;17.70;;;6.50;1.00;;;;;;4991632;28;20186;-87
2023/01/19 12:20:20;;;;;;;27.15;15.70;;;6.20;1.00;;;;;;5022986;28;20182;-85
2023/01/19 12:23:07;;;;;;;28.48;17.02;;;6.00;1.00;;;;;;5027654;28;20205;-87
2023/01/19 12:26:02;;;;;;;40.13;18.55;;;6.00;99.90;;;;;;5029503;28;20173;-85
2023/01/19 12:28:35;;;;;;;31.33;16.50;;;6.10;1.00;;;;;;5022965;28;20179;-87
2023/01/19 12:31:12;;;;;;;34.63;18.05;;;6.10;99.90;;;;;;5044153;28;20182;-86
2023/01/19 12:33:38;;;;;;;27.92;16.52;;;6.10;99.90;;;;;;5030352;28;20269;-87
2023/01/19 12:36:16;;;;;;;30.52;17.85;;;6.20;1.00;;;;;;5032555;28;20705;-87
2023/01/19 12:39:02;;;;;;;29.08;16.95;;;6.60;1.00;;;;;;5032518;28;20606;-87
2023/01/19 12:41:35;;;;;;;35.65;16.75;;;7.10;31.20;;;;;;5026823;28;20232;-88
2023/01/19 12:44:10;;;;;;;29.00;16.27;;;7.60;99.90;;;;;;5023863;28;20182;-87
2023/01/19 12:47:14;;;;;;;27.50;16.30;;;7.70;99.90;;;;;;5028307;28;20464;-87
2023/01/19 12:49:44;;;;;;;25.93;15.33;;;7.60;99.90;;;;;;5027834;28;20540;-87
2023/01/19 12:53:07;;;;;;;;;;;;;;;;;;;;;
2023/01/19 12:55:45;;;;;;;35.97;20.90;;;7.80;1.00;;;;;;5031495;28;20432;-87
2023/01/19 12:58:20;;;;;;;44.17;25.50;;;7.80;1.00;;;;;;5031480;28;21062;-87
2023/01/19 13:00:47;;;;;;;27.55;16.02;;;7.60;99.90;;;;;;5026150;28;20452;-87
2023/01/19 13:03:15;;;;;;;25.27;15.80;;;7.40;1.00;;;;;;5033330;28;20281;-87
2023/01/19 13:05:41;;;;;;;25.80;16.58;;;7.10;1.00;;;;;;5027922;28;20262;-86
2023/01/19 13:08:15;;;;;;;25.20;14.40;;;6.90;1.00;;;;;;5027661;28;20269;-87
2023/01/19 13:10:58;;;;;;;28.70;15.00;;;6.50;1.00;;;;;;5031898;28;20183;-87
2023/01/19 13:16:17;;;;;;;25.92;15.80;;;6.10;99.90;;;;;;5027300;28;20178;-87
2023/01/19 13:18:47;;;;;;;29.67;16.23;;;6.00;1.00;;;;;;5027140;28;20197;-86
2023/01/19 13:21:25;;;;;;;28.45;15.65;;;6.00;1.00;;;;;;5024462;28;20179;-86
2023/01/19 13:23:56;;;;;;;23.70;14.68;;;5.80;1.00;;;;;;5029330;28;20185;-87
2023/01/19 13:26:29;;;;;;;30.42;15.95;;;5.60;99.90;;;;;;5030236;28;20174;-88
2023/01/19 13:28:57;;;;;;;26.20;16.27;;;5.50;1.00;;;;;;5025757;28;20182;-86
2023/01/19 13:31:24;;;;;;;26.73;15.98;;;5.30;36.60;;;;;;5032819;28;20178;-86
2023/01/19 13:33:53;;;;;;;24.17;15.25;;;5.20;1.00;;;;;;5030562;28;20233;-86
2023/01/19 13:36:28;;;;;;;24.80;16.48;;;5.10;1.00;;;;;;5029514;28;20261;-87
2023/01/19 13:38:56;;;;;;;31.17;18.35;;;4.90;99.90;;;;;;5014337;28;20179;-86
2023/01/19 13:41:25;;;;;;;35.17;16.77;;;4.80;99.90;;;;;;5024324;28;20277;-87